Time;durP1;ratioP1;P1;durP2;ratioP2;P2;SDS_P1;SDS_P2;PMS_P1;PMS_P2;Temp;Humidity;BMP_temperature;BMP_pressure;BME280_temperature;BME280_humidity;BME280_pressure;Samples;Min_cycle;Max_cycle;Signal;HPM_P1;HPM_P2
2022/03/26 00:00:36;;;;;;;69.15;50.10;;;5.50;99.90;;;;;;5045034;28;20127;-72
2022/03/26 00:03:03;;;;;;;68.10;50.03;;;5.40;99.90;;;;;;5044205;28;20566;-73
2022/03/26 00:05:28;;;;;;;85.38;60.47;;;5.50;99.90;;;;;;5059710;28;20059;-73
2022/03/26 00:07:54;;;;;;;59.83;42.60;;;5.50;99.90;;;;;;5044792;28;20052;-73
2022/03/26 00:10:20;;;;;;;53.67;39.45;;;5.60;99.90;;;;;;5060053;28;20059;-73
2022/03/26 00:12:46;;;;;;;57.35;40.25;;;5.50;99.90;;;;;;5044693;28;20060;-75
2022/03/26 00:15:12;;;;;;;62.95;42.65;;;5.40;99.90;;;;;;5021950;28;20041;-75
2022/03/26 00:17:39;;;;;;;59.70;43.75;;;5.30;99.90;;;;;;5035696;28;20059;-75
2022/03/26 00:20:06;;;;;;;61.05;43.92;;;5.20;99.90;;;;;;5044162;28;20115;-75
2022/03/26 00:22:32;;;;;;;59.67;45.53;;;5.10;99.90;;;;;;5060620;28;20505;-75
2022/03/26 00:24:58;;;;;;;64.95;47.90;;;5.10;99.90;;;;;;5059227;28;20072;-75
2022/03/26 00:27:24;;;;;;;66.07;47.53;;;5.10;99.90;;;;;;5063044;28;20529;-75
2022/03/26 00:29:50;;;;;;;68.72;48.95;;;5.10;99.90;;;;;;5047521;28;20040;-75
2022/03/26 00:32:16;;;;;;;70.10;51.80;;;5.10;99.90;;;;;;5080155;28;20740;-75
2022/03/26 00:34:42;;;;;;;86.72;58.38;;;5.10;99.90;;;;;;5046593;28;20486;-75
2022/03/26 00:37:07;;;;;;;81.07;58.28;;;5.10;99.90;;;;;;5064218;28;20050;-75
2022/03/26 00:39:33;;;;;;;82.40;56.58;;;5.10;99.90;;;;;;5081013;28;20480;-75
2022/03/26 00:41:59;;;;;;;80.60;57.80;;;5.10;99.90;;;;;;5080845;28;20050;-75
2022/03/26 00:44:27;;;;;;;91.55;65.43;;;5.00;99.90;;;;;;5063264;28;20051;-75
2022/03/26 00:46:53;;;;;;;73.78;55.15;;;5.00;99.90;;;;;;5028245;28;20097;-75
2022/03/26 00:49:19;;;;;;;74.20;52.97;;;5.00;99.90;;;;;;5062962;28;20457;-75
2022/03/26 00:51:46;;;;;;;79.20;55.72;;;5.00;99.90;;;;;;5080986;28;20247;-75
2022/03/26 00:54:12;;;;;;;76.30;52.20;;;5.00;99.90;;;;;;5079675;28;20052;-75
2022/03/26 00:56:40;;;;;;;75.95;54.65;;;5.00;99.90;;;;;;5080142;28;20052;-75
2022/03/26 00:59:06;;;;;;;82.15;56.60;;;5.00;99.90;;;;;;5063047;28;20044;-75
2022/03/26 01:01:32;;;;;;;69.85;51.25;;;5.00;99.90;;;;;;5073641;28;20053;-75
2022/03/26 01:03:59;;;;;;;72.95;52.72;;;5.00;99.90;;;;;;5081098;28;20086;-75
2022/03/26 01:06:28;;;;;;;73.80;53.47;;;4.90;99.90;;;;;;5063710;28;20032;-74
2022/03/26 01:08:55;;;;;;;72.75;53.47;;;4.90;99.90;;;;;;5081707;28;20402;-74
2022/03/26 01:11:24;;;;;;;68.30;51.25;;;5.00;99.90;;;;;;5064425;28;20043;-74
2022/03/26 01:13:53;;;;;;;68.35;52.33;;;4.90;99.90;;;;;;5064011;28;20529;-74
2022/03/26 01:16:19;;;;;;;75.38;55.03;;;4.90;99.90;;;;;;5062625;28;20047;-73
2022/03/26 01:18:45;;;;;;;74.63;54.13;;;4.90;99.90;;;;;;5046765;28;20044;-74
2022/03/26 01:21:11;;;;;;;76.28;54.17;;;4.90;99.90;;;;;;5079988;28;20082;-73
2022/03/26 01:23:36;;;;;;;85.55;60.03;;;4.80;99.90;;;;;;5046256;28;20059;-73
2022/03/26 01:26:04;;;;;;;84.00;60.40;;;4.80;99.90;;;;;;5080160;28;20358;-74
2022/03/26 01:28:30;;;;;;;87.18;62.60;;;4.80;99.90;;;;;;5062775;28;20076;-75
2022/03/26 01:30:57;;;;;;;85.20;60.78;;;4.80;99.90;;;;;;5080290;28;20133;-75
2022/03/26 01:33:23;;;;;;;83.07;59.92;;;4.80;99.90;;;;;;5078748;28;20119;-73
2022/03/26 01:35:49;;;;;;;86.07;61.03;;;4.80;99.90;;;;;;5082543;28;20445;-73
2022/03/26 01:38:14;;;;;;;89.35;62.78;;;4.70;99.90;;;;;;5081127;28;20063;-73
2022/03/26 01:40:40;;;;;;;90.63;62.58;;;4.80;99.90;;;;;;5045289;28;20429;-73
2022/03/26 01:43:06;;;;;;;86.03;60.85;;;4.70;99.90;;;;;;5063997;28;20059;-73
2022/03/26 01:45:32;;;;;;;85.60;62.63;;;4.70;99.90;;;;;;5062845;28;20121;-73
2022/03/26 01:47:59;;;;;;;93.63;65.38;;;4.70;99.90;;;;;;5064619;28;20044;-73
2022/03/26 01:50:27;;;;;;;95.13;65.32;;;4.70;99.90;;;;;;5063963;28;20040;-73
2022/03/26 01:52:52;;;;;;;84.03;61.38;;;4.60;99.90;;;;;;5065272;28;20122;-72
2022/03/26 01:55:19;;;;;;;92.15;63.60;;;4.50;99.90;;;;;;5063542;28;20185;-72
2022/03/26 01:57:45;;;;;;;92.78;64.03;;;4.50;99.90;;;;;;5064193;28;20128;-72
2022/03/26 02:00:12;;;;;;;88.85;64.78;;;4.50;99.90;;;;;;5080788;28;20067;-72
2022/03/26 02:02:43;;;;;;;99.70;70.32;;;4.50;99.90;;;;;;5060139;28;20067;-72
2022/03/26 02:05:11;;;;;;;101.05;69.47;;;4.50;99.90;;;;;;5064498;28;20129;-72
2022/03/26 02:07:39;;;;;;;102.97;71.00;;;4.40;99.90;;;;;;5081571;28;20568;-72
2022/03/26 02:10:08;;;;;;;111.80;76.00;;;4.50;99.90;;;;;;5067688;28;20593;-72
2022/03/26 02:12:33;;;;;;;115.70;77.63;;;4.40;99.90;;;;;;5068053;28;20048;-72
2022/03/26 02:14:59;;;;;;;98.18;69.97;;;4.40;99.90;;;;;;5084802;28;20048;-73
2022/03/26 02:17:28;;;;;;;106.72;72.50;;;4.40;99.90;;;;;;5067849;28;20123;-73
2022/03/26 02:19:58;;;;;;;112.78;76.63;;;4.40;99.90;;;;;;5066001;28;20040;-73
2022/03/26 02:22:26;;;;;;;125.88;79.18;;;4.40;99.90;;;;;;5074898;28;20040;-73
2022/03/26 02:24:53;;;;;;;133.98;85.95;;;4.50;99.90;;;;;;5063850;28;20048;-73
2022/03/26 02:27:19;;;;;;;118.72;82.38;;;4.40;99.90;;;;;;5081061;28;20036;-73
2022/03/26 02:29:44;;;;;;;133.77;85.15;;;4.40;99.90;;;;;;5081585;28;20125;-73
2022/03/26 02:32:10;;;;;;;128.70;84.10;;;4.40;99.90;;;;;;5064726;28;20044;-73
2022/03/26 02:34:38;;;;;;;128.63;81.60;;;4.40;99.90;;;;;;5065092;28;20229;-73
2022/03/26 02:37:04;;;;;;;113.28;73.97;;;4.20;99.90;;;;;;5064718;28;20044;-73
2022/03/26 02:39:30;;;;;;;120.43;76.93;;;4.30;99.90;;;;;;5081207;28;20584;-72
2022/03/26 02:41:58;;;;;;;124.60;78.33;;;4.20;99.90;;;;;;5069937;28;20044;-73
2022/03/26 02:44:24;;;;;;;129.20;81.15;;;4.10;99.90;;;;;;5076299;28;20036;-73
2022/03/26 02:46:50;;;;;;;122.80;79.88;;;4.00;99.90;;;;;;5080430;28;20055;-72
2022/03/26 02:49:16;;;;;;;137.50;84.93;;;3.90;99.90;;;;;;5080956;28;20190;-73
2022/03/26 02:51:43;;;;;;;123.53;80.47;;;3.80;99.90;;;;;;5064115;28;20351;-73
2022/03/26 02:54:18;;;;;;;140.40;86.43;;;3.80;99.90;;;;;;5047252;28;20416;-72
2022/03/26 02:56:48;;;;;;;135.30;85.25;;;3.80;99.90;;;;;;5079639;28;20142;-71
2022/03/26 02:59:14;;;;;;;131.30;84.78;;;3.80;99.90;;;;;;5110647;27;20067;-72
2022/03/26 03:01:40;;;;;;;127.28;82.18;;;3.80;99.90;;;;;;5079397;28;20078;-73
2022/03/26 03:04:09;;;;;;;140.35;88.60;;;3.70;99.90;;;;;;5059130;28;20483;-72
2022/03/26 03:06:35;;;;;;;151.15;89.45;;;3.70;99.90;;;;;;5070761;28;20059;-73
2022/03/26 03:09:06;;;;;;;136.00;88.53;;;3.70;99.90;;;;;;5065617;28;20040;-72
2022/03/26 03:11:34;;;;;;;133.55;86.57;;;3.70;99.90;;;;;;5081745;28;20109;-72
2022/03/26 03:13:59;;;;;;;132.63;87.17;;;3.60;99.90;;;;;;5082589;28;20052;-74
2022/03/26 03:16:28;;;;;;;145.93;90.07;;;3.70;99.90;;;;;;5063610;28;20055;-73
2022/03/26 03:18:54;;;;;;;148.75;87.70;;;3.70;99.90;;;;;;5064580;28;20362;-73
2022/03/26 03:21:20;;;;;;;153.30;87.37;;;3.60;99.90;;;;;;5064863;28;20056;-73
2022/03/26 03:23:45;;;;;;;106.95;72.45;;;3.60;99.90;;;;;;5075973;28;20397;-73
2022/03/26 03:26:11;;;;;;;105.03;72.43;;;3.60;99.90;;;;;;5044486;28;20485;-71
2022/03/26 03:28:38;;;;;;;112.78;73.18;;;3.50;99.90;;;;;;5047590;28;20300;-73
2022/03/26 03:31:04;;;;;;;120.87;76.97;;;3.50;99.90;;;;;;5035221;28;20052;-73
2022/03/26 03:33:30;;;;;;;110.10;70.63;;;3.40;99.90;;;;;;5101067;28;20100;-73
2022/03/26 03:35:57;;;;;;;94.53;65.20;;;3.50;99.90;;;;;;5067501;28;20462;-73
2022/03/26 03:38:22;;;;;;;97.93;67.03;;;3.40;99.90;;;;;;5083981;28;20127;-73
2022/03/26 03:40:48;;;;;;;96.13;65.93;;;3.40;99.90;;;;;;5084492;28;20139;-73
2022/03/26 03:43:14;;;;;;;101.18;69.43;;;3.40;99.90;;;;;;5067236;28;20553;-73
2022/03/26 03:45:41;;;;;;;103.00;70.47;;;3.50;99.90;;;;;;5083025;28;20040;-73
2022/03/26 03:48:07;;;;;;;127.07;78.43;;;3.50;99.90;;;;;;5084191;28;20090;-73
2022/03/26 03:50:33;;;;;;;130.40;77.50;;;3.50;99.90;;;;;;5064274;28;20079;-73
2022/03/26 03:52:58;;;;;;;101.57;68.60;;;3.50;99.90;;;;;;5083771;28;20531;-73
2022/03/26 03:55:24;;;;;;;118.00;76.53;;;3.50;99.90;;;;;;5042901;28;20048;-73
2022/03/26 03:57:50;;;;;;;98.07;68.93;;;3.40;99.90;;;;;;5063388;28;20345;-73
2022/03/26 04:00:16;;;;;;;101.77;69.47;;;3.40;99.90;;;;;;5065393;28;20077;-73
2022/03/26 04:02:43;;;;;;;101.03;69.38;;;3.40;99.90;;;;;;5082987;28;20042;-73
2022/03/26 04:05:10;;;;;;;93.60;66.40;;;3.40;99.90;;;;;;5049825;28;20198;-73
2022/03/26 04:07:37;;;;;;;122.80;78.23;;;3.40;99.90;;;;;;5081691;28;20094;-71
2022/03/26 04:10:04;;;;;;;129.03;80.73;;;3.40;99.90;;;;;;5097765;28;20533;-71
2022/03/26 04:12:30;;;;;;;124.22;77.47;;;3.50;99.90;;;;;;5063332;28;20522;-71
2022/03/26 04:14:56;;;;;;;136.80;79.60;;;3.40;99.90;;;;;;5081509;28;20303;-71
2022/03/26 04:17:22;;;;;;;130.73;81.07;;;3.30;99.90;;;;;;5048204;28;20118;-72
2022/03/26 04:19:48;;;;;;;136.27;82.47;;;3.30;99.90;;;;;;5065054;28;20050;-72
2022/03/26 04:22:13;;;;;;;143.07;84.33;;;3.40;99.90;;;;;;5064639;28;20040;-72
2022/03/26 04:24:40;;;;;;;167.17;92.27;;;3.30;99.90;;;;;;5081705;28;20050;-72
2022/03/26 04:27:06;;;;;;;167.53;91.10;;;3.30;99.90;;;;;;5065131;28;20391;-72
2022/03/26 04:29:32;;;;;;;140.97;84.70;;;3.30;99.90;;;;;;5047539;28;20050;-72
2022/03/26 04:31:58;;;;;;;145.53;85.13;;;3.30;99.90;;;;;;5064980;28;20048;-72
2022/03/26 04:34:25;;;;;;;126.03;77.67;;;3.20;99.90;;;;;;5064970;28;20052;-72
2022/03/26 04:36:51;;;;;;;110.60;74.40;;;3.20;99.90;;;;;;5081643;28;20040;-72
2022/03/26 04:39:17;;;;;;;117.97;76.90;;;3.20;99.90;;;;;;5081907;28;20044;-72
2022/03/26 04:41:47;;;;;;;114.73;74.30;;;3.20;99.90;;;;;;5081729;28;20127;-71
2022/03/26 04:44:16;;;;;;;126.10;78.45;;;3.10;99.90;;;;;;5077455;28;20067;-74
2022/03/26 04:46:42;;;;;;;112.77;73.87;;;3.20;99.90;;;;;;5063417;28;20036;-71
2022/03/26 04:49:08;;;;;;;109.10;73.23;;;3.20;99.90;;;;;;5081332;28;20036;-71
2022/03/26 04:51:34;;;;;;;114.83;76.37;;;3.20;99.90;;;;;;5080916;28;20498;-71
2022/03/26 04:54:00;;;;;;;102.03;71.87;;;3.20;99.90;;;;;;5081373;28;20495;-72
2022/03/26 04:56:26;;;;;;;106.47;72.77;;;3.20;99.90;;;;;;5047828;28;20040;-74
2022/03/26 04:58:54;;;;;;;111.00;73.37;;;3.20;99.90;;;;;;5081537;28;20071;-72
2022/03/26 05:01:20;;;;;;;113.40;74.03;;;3.20;99.90;;;;;;5063046;28;20051;-73
2022/03/26 05:03:49;;;;;;;125.17;81.73;;;3.20;99.90;;;;;;5066183;28;20517;-74
2022/03/26 05:06:15;;;;;;;156.17;100.73;;;3.20;99.90;;;;;;5081062;28;20056;-74
2022/03/26 05:08:41;;;;;;;159.37;101.50;;;3.20;99.90;;;;;;5082467;28;20040;-74
2022/03/26 05:11:07;;;;;;;170.57;106.00;;;3.20;99.90;;;;;;5049151;28;20052;-74
2022/03/26 05:13:33;;;;;;;132.73;88.67;;;3.30;99.90;;;;;;5065729;28;20044;-74
2022/03/26 05:15:59;;;;;;;139.23;92.67;;;3.30;99.90;;;;;;5061354;28;20539;-74
2022/03/26 05:18:28;;;;;;;147.43;95.13;;;3.30;99.90;;;;;;5062076;28;20379;-74
2022/03/26 05:20:56;;;;;;;141.33;93.33;;;3.30;99.90;;;;;;5062970;28;20045;-74
2022/03/26 05:23:23;;;;;;;219.63;120.80;;;3.20;99.90;;;;;;5048515;28;20044;-74
2022/03/26 05:25:53;;;;;;;159.67;101.17;;;3.30;99.90;;;;;;5071792;28;20055;-75
2022/03/26 05:28:19;;;;;;;158.98;102.18;;;3.30;99.90;;;;;;5068163;28;20050;-74
2022/03/26 05:30:51;;;;;;;134.07;88.20;;;3.30;99.90;;;;;;5102794;28;20130;-74
2022/03/26 05:33:17;;;;;;;147.77;99.27;;;3.20;99.90;;;;;;5085853;28;20520;-74
2022/03/26 05:35:43;;;;;;;143.00;95.13;;;3.30;99.90;;;;;;5085961;28;20044;-74
2022/03/26 05:38:08;;;;;;;227.67;119.80;;;3.20;99.90;;;;;;5068848;28;20058;-74
2022/03/26 05:40:34;;;;;;;145.23;96.67;;;3.20;99.90;;;;;;5086041;28;20047;-74
2022/03/26 05:43:00;;;;;;;154.67;100.27;;;3.30;99.90;;;;;;5072785;28;20047;-74
2022/03/26 05:45:26;;;;;;;156.03;100.37;;;3.30;99.90;;;;;;5071113;28;20093;-74
2022/03/26 05:47:57;;;;;;;144.63;96.23;;;3.30;99.90;;;;;;5072694;28;20048;-74
2022/03/26 05:50:23;;;;;;;189.03;113.63;;;3.30;99.90;;;;;;5107056;28;20058;-74
2022/03/26 05:52:49;;;;;;;172.50;102.33;;;3.40;99.90;;;;;;5090697;28;20031;-74
2022/03/26 05:55:16;;;;;;;154.53;99.97;;;3.40;99.90;;;;;;5073315;28;20097;-74
2022/03/26 05:57:43;;;;;;;147.93;98.20;;;3.40;99.90;;;;;;5090076;28;20439;-73
2022/03/26 06:00:10;;;;;;;144.37;95.37;;;3.50;99.90;;;;;;5071892;28;20501;-74
2022/03/26 06:02:36;;;;;;;151.27;96.97;;;3.60;99.90;;;;;;5124142;27;20706;-74
2022/03/26 06:05:03;;;;;;;140.23;94.43;;;3.70;99.90;;;;;;5089891;28;20047;-72
2022/03/26 06:07:29;;;;;;;137.65;90.05;;;3.80;99.90;;;;;;5067724;28;20129;-74
2022/03/26 06:09:54;;;;;;;138.27;90.80;;;3.80;99.90;;;;;;5068510;28;20043;-73
2022/03/26 06:12:20;;;;;;;149.07;95.70;;;3.90;99.90;;;;;;5119029;27;20138;-74
2022/03/26 06:14:46;;;;;;;131.65;89.88;;;4.00;99.90;;;;;;5087995;28;20207;-73
2022/03/26 06:17:12;;;;;;;157.45;98.65;;;4.10;99.90;;;;;;5123118;27;20096;-74
2022/03/26 06:19:38;;;;;;;151.57;100.20;;;4.00;99.90;;;;;;5088741;28;20553;-74
2022/03/26 06:22:04;;;;;;;145.32;95.72;;;4.20;99.90;;;;;;5055750;28;20047;-73
2022/03/26 06:24:30;;;;;;;182.67;110.47;;;4.20;99.90;;;;;;5088723;28;20083;-73
2022/03/26 06:26:59;;;;;;;168.80;105.45;;;4.20;99.90;;;;;;5089030;28;20486;-73
2022/03/26 06:29:28;;;;;;;160.77;105.97;;;4.30;99.90;;;;;;5071694;28;20043;-73
2022/03/26 06:31:53;;;;;;;175.43;115.47;;;4.30;99.90;;;;;;5072453;28;20395;-74
2022/03/26 06:34:19;;;;;;;206.37;123.53;;;4.30;99.90;;;;;;5088263;28;20058;-74
2022/03/26 06:36:45;;;;;;;207.23;127.03;;;4.50;99.90;;;;;;5055594;28;20128;-73
2022/03/26 06:39:11;;;;;;;183.75;116.82;;;4.60;99.90;;;;;;5071539;28;20601;-73
2022/03/26 06:41:39;;;;;;;188.68;117.55;;;4.60;99.90;;;;;;5071443;28;20043;-74
2022/03/26 06:44:08;;;;;;;194.65;117.90;;;4.70;99.90;;;;;;5089010;28;20055;-73
2022/03/26 06:46:36;;;;;;;191.00;121.13;;;4.70;99.90;;;;;;5070341;28;20047;-74
2022/03/26 06:49:03;;;;;;;175.85;115.13;;;4.80;99.90;;;;;;5088219;28;20046;-73
2022/03/26 06:51:29;;;;;;;174.50;114.75;;;4.90;99.90;;;;;;5071544;28;20743;-74
2022/03/26 06:53:55;;;;;;;187.82;122.55;;;5.00;99.90;;;;;;5071861;28;20042;-73
2022/03/26 06:56:20;;;;;;;214.82;130.00;;;5.10;99.90;;;;;;5070912;28;20051;-74
2022/03/26 06:58:46;;;;;;;207.13;129.70;;;5.30;99.90;;;;;;5071365;28;20122;-73
2022/03/26 07:01:12;;;;;;;215.65;131.73;;;5.40;99.90;;;;;;5088460;28;20666;-74
2022/03/26 07:03:37;;;;;;;205.68;131.15;;;5.50;99.90;;;;;;5071526;28;20586;-74
2022/03/26 07:06:04;;;;;;;209.77;131.15;;;5.70;99.90;;;;;;5067227;28;20526;-73
2022/03/26 07:08:30;;;;;;;197.77;124.05;;;5.80;99.90;;;;;;5084550;28;20044;-72
2022/03/26 07:10:56;;;;;;;181.50;120.88;;;6.00;99.90;;;;;;5106808;27;20055;-73
2022/03/26 07:13:22;;;;;;;179.75;118.40;;;6.20;99.90;;;;;;5087924;28;20047;-73
2022/03/26 07:15:48;;;;;;;165.80;110.93;;;6.40;99.90;;;;;;5104061;28;20038;-73
2022/03/26 07:18:15;;;;;;;162.25;108.32;;;6.50;99.90;;;;;;5087676;28;20108;-74
2022/03/26 07:20:41;;;;;;;153.75;104.25;;;6.70;99.90;;;;;;5088070;28;20059;-74
2022/03/26 07:23:06;;;;;;;160.38;106.85;;;6.90;99.90;;;;;;5088509;28;20047;-73
2022/03/26 07:25:33;;;;;;;151.30;104.32;;;7.10;99.90;;;;;;5086986;28;20433;-74
2022/03/26 07:27:59;;;;;;;141.63;96.78;;;7.30;99.90;;;;;;5071812;28;20048;-73
2022/03/26 07:30:25;;;;;;;132.88;90.00;;;7.50;99.90;;;;;;5071338;28;20100;-74
2022/03/26 07:32:51;;;;;;;133.73;89.30;;;7.70;99.90;;;;;;5071845;28;20050;-74
2022/03/26 07:35:17;;;;;;;127.53;87.20;;;7.90;99.90;;;;;;5071149;28;20077;-74
2022/03/26 07:37:43;;;;;;;118.63;79.82;;;8.10;99.90;;;;;;5087575;28;20148;-74
2022/03/26 07:40:10;;;;;;;117.70;79.18;;;8.30;99.90;;;;;;5070588;28;20039;-74
2022/03/26 07:42:36;;;;;;;121.25;81.05;;;8.50;99.90;;;;;;5086603;28;20254;-74
2022/03/26 07:45:04;;;;;;;121.78;79.25;;;8.70;99.90;;;;;;5066361;28;20406;-73
2022/03/26 07:47:29;;;;;;;109.75;76.60;;;8.80;99.90;;;;;;5066806;28;20095;-74
2022/03/26 07:49:56;;;;;;;123.35;79.28;;;8.90;99.90;;;;;;5066912;28;20716;-73
2022/03/26 07:52:21;;;;;;;113.78;77.00;;;9.10;99.90;;;;;;5082113;28;20549;-74
2022/03/26 07:54:47;;;;;;;115.25;76.03;;;9.20;99.90;;;;;;5070590;28;20071;-74
2022/03/26 07:57:13;;;;;;;110.05;73.95;;;9.40;99.90;;;;;;5104267;27;20512;-73
2022/03/26 07:59:39;;;;;;;98.95;68.47;;;9.60;99.90;;;;;;5120483;27;20554;-74
2022/03/26 08:02:05;;;;;;;104.13;70.03;;;9.80;99.90;;;;;;5086578;28;20055;-74
2022/03/26 08:04:31;;;;;;;103.05;70.32;;;10.00;99.90;;;;;;5102599;28;20043;-74
2022/03/26 08:06:56;;;;;;;97.45;62.92;;;10.20;99.90;;;;;;5085472;28;20334;-74
2022/03/26 08:09:22;;;;;;;92.72;60.30;;;10.40;99.90;;;;;;5052481;28;20031;-73
2022/03/26 08:11:48;;;;;;;89.30;59.15;;;10.60;99.90;;;;;;5053709;28;20546;-73
2022/03/26 08:14:14;;;;;;;82.97;54.15;;;10.80;99.90;;;;;;5086835;28;20052;-74
2022/03/26 08:16:40;;;;;;;82.95;55.88;;;11.00;99.90;;;;;;5085718;28;20043;-74
2022/03/26 08:19:06;;;;;;;81.95;57.45;;;11.10;99.90;;;;;;5104211;28;20114;-72
2022/03/26 08:21:35;;;;;;;81.32;54.30;;;11.30;99.90;;;;;;5120289;27;20051;-73
2022/03/26 08:24:02;;;;;;;81.72;51.75;;;11.50;99.90;;;;;;5086732;28;20398;-73
2022/03/26 08:26:29;;;;;;;75.20;49.42;;;11.70;99.90;;;;;;5120268;27;20109;-74
2022/03/26 08:28:57;;;;;;;79.90;47.63;;;11.90;99.90;;;;;;5103638;28;20086;-73
2022/03/26 08:31:26;;;;;;;69.32;45.78;;;12.10;99.90;;;;;;5119932;27;20130;-74
2022/03/26 08:33:53;;;;;;;74.82;45.33;;;12.30;99.90;;;;;;5103702;28;20505;-74
2022/03/26 08:36:19;;;;;;;74.60;45.03;;;12.40;99.90;;;;;;5119721;27;20056;-73
2022/03/26 08:38:46;;;;;;;72.07;45.63;;;12.60;99.90;;;;;;5086560;28;20051;-71
2022/03/26 08:41:13;;;;;;;75.95;45.00;;;12.80;99.90;;;;;;5103671;28;20051;-71
2022/03/26 08:43:39;;;;;;;72.93;45.50;;;12.90;99.90;;;;;;5086515;28;20150;-72
2022/03/26 08:46:05;;;;;;;72.80;45.30;;;13.00;99.80;;;;;;5120700;27;20529;-71
2022/03/26 08:48:31;;;;;;;71.43;44.95;;;13.00;97.20;;;;;;5120455;27;20378;-73
2022/03/26 08:50:57;;;;;;;71.60;45.33;;;13.10;97.50;;;;;;5070132;28;20073;-72
2022/03/26 08:53:23;;;;;;;75.18;46.40;;;13.20;99.40;;;;;;5086679;28;20057;-72
2022/03/26 08:55:50;;;;;;;68.55;44.58;;;13.30;99.90;;;;;;5087077;28;20069;-72
2022/03/26 08:58:17;;;;;;;70.57;44.67;;;13.30;99.30;;;;;;5069226;28;20047;-72
2022/03/26 09:00:47;;;;;;;70.78;43.47;;;13.50;98.70;;;;;;5084698;28;20067;-71
2022/03/26 09:03:14;;;;;;;70.65;43.83;;;13.50;98.30;;;;;;5103303;28;20500;-72
2022/03/26 09:05:40;;;;;;;70.18;43.53;;;13.60;98.20;;;;;;5100275;28;20112;-71
2022/03/26 09:08:06;;;;;;;65.18;40.22;;;13.70;97.70;;;;;;5085054;28;20052;-72
2022/03/26 09:10:32;;;;;;;66.60;42.35;;;13.70;96.20;;;;;;5083112;28;20051;-71
2022/03/26 09:12:58;;;;;;;65.25;40.47;;;13.80;96.40;;;;;;5051791;28;20088;-72
2022/03/26 09:15:24;;;;;;;64.82;41.03;;;13.90;96.60;;;;;;5066005;28;20044;-72
2022/03/26 09:17:49;;;;;;;64.50;42.55;;;14.00;95.20;;;;;;5082329;28;20085;-72
2022/03/26 09:20:15;;;;;;;53.30;33.92;;;14.10;95.90;;;;;;5066862;28;20469;-72
2022/03/26 09:22:41;;;;;;;58.75;39.28;;;14.30;95.00;;;;;;5067160;28;20089;-72
2022/03/26 09:25:08;;;;;;;50.00;33.58;;;14.40;93.10;;;;;;5043377;28;20122;-72
2022/03/26 09:27:33;;;;;;;52.30;31.08;;;14.40;92.30;;;;;;5080259;28;20062;-71
2022/03/26 09:30:00;;;;;;;48.15;30.90;;;14.50;93.50;;;;;;5080788;28;20040;-72
2022/03/26 09:32:28;;;;;;;56.47;32.92;;;14.60;92.30;;;;;;5080481;28;20054;-72
2022/03/26 09:34:54;;;;;;;48.55;33.30;;;14.70;91.20;;;;;;5064702;28;20089;-72
2022/03/26 09:37:20;;;;;;;45.65;32.55;;;14.70;92.40;;;;;;5080779;28;20043;-72
2022/03/26 09:39:46;;;;;;;48.53;33.28;;;14.80;92.10;;;;;;5064446;28;20470;-72
2022/03/26 09:42:13;;;;;;;47.88;31.65;;;14.90;93.10;;;;;;5081004;28;20044;-74
2022/03/26 09:44:39;;;;;;;43.85;31.33;;;15.10;94.10;;;;;;5078842;28;20095;-74
2022/03/26 09:47:07;;;;;;;41.78;27.63;;;15.20;93.90;;;;;;5064356;28;20094;-75
2022/03/26 09:49:33;;;;;;;41.78;28.98;;;15.40;94.20;;;;;;5079865;28;20058;-75
2022/03/26 09:51:59;;;;;;;45.15;30.02;;;15.50;93.90;;;;;;5049453;28;20105;-74
2022/03/26 09:54:28;;;;;;;39.47;26.75;;;15.40;94.70;;;;;;5080507;28;20056;-74
2022/03/26 09:56:54;;;;;;;39.72;27.05;;;15.50;94.50;;;;;;5064281;28;20138;-74
2022/03/26 09:59:21;;;;;;;39.80;28.85;;;15.50;95.10;;;;;;5079921;28;20044;-73
2022/03/26 10:01:48;;;;;;;42.65;30.92;;;15.50;95.10;;;;;;5079612;28;20498;-73
2022/03/26 10:04:15;;;;;;;47.60;31.67;;;15.60;93.90;;;;;;5064516;28;20306;-71
2022/03/26 10:06:55;;;;;;;40.33;29.63;;;15.50;93.20;;;;;;5080588;28;20059;-71
2022/03/26 10:09:38;;;;;;;42.58;28.20;;;15.50;95.10;;;;;;5064582;28;20072;-71
2022/03/26 10:12:05;;;;;;;40.22;28.10;;;15.70;95.00;;;;;;5064443;28;20078;-71
2022/03/26 10:14:59;;;;;;;29.08;21.17;;;15.90;95.20;;;;;;5079859;28;20095;-71
2022/03/26 10:17:35;;;;;;;32.92;24.90;;;16.00;93.40;;;;;;5064067;28;20048;-71
2022/03/26 10:20:02;;;;;;;32.50;22.85;;;16.10;92.20;;;;;;5081113;28;20729;-72
2022/03/26 10:22:28;;;;;;;35.05;24.45;;;16.20;92.10;;;;;;5080032;28;20518;-72
2022/03/26 10:25:14;;;;;;;32.17;23.13;;;16.30;93.10;;;;;;5062282;28;20048;-72
2022/03/26 10:27:42;;;;;;;27.50;21.88;;;16.40;92.00;;;;;;5080928;28;20052;-72
2022/03/26 10:30:10;;;;;;;26.42;18.73;;;16.50;90.80;;;;;;5067326;28;20036;-72
2022/03/26 10:32:45;;;;;;;24.40;18.52;;;16.60;90.70;;;;;;5083496;28;20123;-72
2022/03/26 10:35:16;;;;;;;20.40;16.15;;;16.60;86.10;;;;;;5084297;28;20124;-73
2022/03/26 10:37:59;;;;;;;21.80;16.15;;;16.60;86.30;;;;;;5066428;28;20096;-72
2022/03/26 10:40:35;;;;;;;24.13;18.40;;;16.60;86.40;;;;;;5083766;28;20074;-72
2022/03/26 10:43:02;;;;;;;20.55;16.25;;;16.70;85.20;;;;;;5067254;28;20055;-72
2022/03/26 10:45:30;;;;;;;19.95;14.23;;;16.80;86.90;;;;;;5082407;28;20126;-73
2022/03/26 10:47:58;;;;;;;20.38;14.57;;;16.90;81.80;;;;;;5084222;28;20040;-72
2022/03/26 10:50:27;;;;;;;18.98;13.48;;;16.90;81.00;;;;;;5082412;28;20059;-73
2022/03/26 10:52:55;;;;;;;22.08;14.48;;;16.90;80.90;;;;;;5083283;28;20078;-72
2022/03/26 10:55:24;;;;;;;18.42;14.68;;;16.90;79.30;;;;;;5066419;28;20478;-72
2022/03/26 10:57:50;;;;;;;16.67;13.88;;;16.90;79.10;;;;;;5083251;28;20360;-72
2022/03/26 11:00:18;;;;;;;22.13;15.20;;;16.80;79.40;;;;;;5065206;28;20561;-72
2022/03/26 11:02:45;;;;;;;19.17;14.93;;;16.80;83.00;;;;;;5082737;28;20522;-72
2022/03/26 11:05:11;;;;;;;20.17;14.90;;;17.00;81.00;;;;;;5083873;28;20048;-72
2022/03/26 11:07:41;;;;;;;18.83;14.93;;;17.10;81.50;;;;;;5083045;28;20052;-72
2022/03/26 11:10:12;;;;;;;23.05;15.45;;;17.10;80.30;;;;;;5066719;28;20122;-71
2022/03/26 11:12:45;;;;;;;22.48;15.93;;;17.20;81.10;;;;;;5081207;28;20040;-71
2022/03/26 11:15:36;;;;;;;21.17;15.85;;;17.20;80.20;;;;;;5082780;28;20036;-72
2022/03/26 11:18:37;;;;;;;19.02;15.63;;;17.20;81.00;;;;;;5083554;28;20579;-72
2022/03/26 11:21:12;;;;;;;19.95;15.48;;;17.10;81.00;;;;;;5083174;28;20578;-71
2022/03/26 11:24:11;;;;;;;19.45;15.23;;;17.20;80.80;;;;;;5081744;28;20048;-72
2022/03/26 11:27:07;;;;;;;18.98;14.15;;;17.20;81.10;;;;;;5117481;27;20124;-72
2022/03/26 11:29:56;;;;;;;16.70;13.77;;;17.30;80.00;;;;;;5085624;28;20523;-72
2022/03/26 11:32:43;;;;;;;20.60;14.57;;;17.30;79.10;;;;;;5085959;28;20039;-72
2022/03/26 11:35:19;;;;;;;20.88;14.20;;;17.40;77.40;;;;;;5086419;28;20048;-72
2022/03/26 11:37:56;;;;;;;18.80;13.95;;;17.40;77.60;;;;;;5068754;28;20142;-72
2022/03/26 11:40:53;;;;;;;17.20;13.48;;;17.50;78.10;;;;;;5084328;28;20100;-71
2022/03/26 11:43:41;;;;;;;18.58;13.73;;;17.50;76.40;;;;;;5071128;28;20114;-72
2022/03/26 11:51:39;;;;;;;15.80;13.30;;;17.60;74.10;;;;;;5085265;28;20055;-73
2022/03/26 11:54:13;;;;;;;16.73;13.48;;;17.60;73.80;;;;;;5069410;28;20081;-74
2022/03/26 11:56:40;;;;;;;17.50;13.13;;;17.60;73.90;;;;;;5068489;28;20427;-75
2022/03/26 11:59:20;;;;;;;16.10;12.45;;;17.60;74.20;;;;;;5069356;28;20052;-75
2022/03/26 12:01:50;;;;;;;17.00;12.73;;;17.60;73.00;;;;;;5084717;28;20117;-74
2022/03/26 12:04:18;;;;;;;14.65;12.52;;;17.50;73.10;;;;;;5086232;28;20414;-72
2022/03/26 12:06:49;;;;;;;17.10;12.98;;;17.50;73.80;;;;;;5065832;28;20075;-72
2022/03/26 12:09:32;;;;;;;16.00;13.23;;;17.60;72.70;;;;;;5068953;28;20128;-73
2022/03/26 12:12:08;;;;;;;16.50;12.10;;;17.60;72.60;;;;;;5068368;28;20422;-73
2022/03/26 12:14:35;;;;;;;18.13;12.82;;;17.60;74.50;;;;;;5084323;28;20056;-72
2022/03/26 12:17:04;;;;;;;15.07;12.50;;;17.70;74.20;;;;;;5067650;28;20059;-72
2022/03/26 12:19:45;;;;;;;17.25;12.88;;;17.80;74.70;;;;;;5084995;28;20662;-72
2022/03/26 12:22:21;;;;;;;13.75;10.73;;;17.80;73.60;;;;;;5084428;28;20134;-72
2022/03/26 12:24:48;;;;;;;14.35;10.18;;;17.80;73.20;;;;;;5081162;28;20074;-73
2022/03/26 12:27:15;;;;;;;13.63;10.43;;;17.80;73.10;;;;;;5065415;28;20070;-72
2022/03/26 12:29:44;;;;;;;12.43;10.05;;;17.80;72.30;;;;;;5064950;28;20439;-72
2022/03/26 12:32:10;;;;;;;14.65;9.20;;;17.70;73.00;;;;;;5063704;28;20446;-73
2022/03/26 12:34:54;;;;;;;12.73;8.05;;;17.60;73.50;;;;;;5064214;28;20052;-72
2022/03/26 12:37:21;;;;;;;11.63;7.93;;;17.70;73.10;;;;;;5097303;28;20637;-73